Time;durP1;ratioP1;P1;durP2;ratioP2;P2;SDS_P1;SDS_P2;PMS_P1;PMS_P2;Temp;Humidity;BMP_temperature;BMP_pressure;BME280_temperature;BME280_humidity;BME280_pressure;Samples;Min_cycle;Max_cycle;Signal;HPM_P1;HPM_P2
2022/12/22 03:26:42;;;;;;;;;;;14.80;99.90;;;;;;5044713;28;19916;-73
2022/12/22 03:29:08;;;;;;;;;;;14.60;99.90;;;;;;5034895;28;20191;-73
2022/12/22 03:31:33;;;;;;;;;;;14.90;99.90;;;;;;5039085;28;19913;-73
2022/12/22 03:33:59;;;;;;;;;;;14.70;99.90;;;;;;5031174;28;19913;-74
2022/12/22 03:36:24;;;;;;;;;;;14.60;99.90;;;;;;5041281;28;19920;-73
2022/12/22 03:38:49;;;;;;;;;;;14.50;99.90;;;;;;5037699;28;19921;-73
2022/12/22 03:46:43;;;;;;;;;;;14.70;99.90;;;;;;5044004;28;19920;-73
2022/12/22 03:49:09;;;;;;;;;;;14.60;99.90;;;;;;5035120;28;19916;-74
2022/12/22 03:51:36;;;;;;;;;;;14.70;99.90;;;;;;5034477;28;19916;-72
2022/12/22 03:54:01;;;;;;;;;;;14.60;99.90;;;;;;5040896;28;19912;-73
2022/12/22 03:56:27;;;;;;;;;;;14.60;99.90;;;;;;5040942;28;20371;-75
2022/12/22 03:58:52;;;;;;;;;;;14.50;99.90;;;;;;5038179;28;19917;-74
2022/12/22 04:01:18;;;;;;;;;;;14.30;99.90;;;;;;5046171;28;19963;-74
2022/12/22 04:03:43;;;;;;;;;;;14.50;99.90;;;;;;5043916;28;19958;-74
2022/12/22 04:06:09;;;;;;;;;;;14.50;99.90;;;;;;5030935;28;19920;-73
2022/12/22 04:08:34;;;;;;;;;;;14.30;99.90;;;;;;5036168;28;19936;-73
2022/12/22 04:13:44;;;;;;;;;;;14.40;99.90;;;;;;5041076;28;19920;-73
2022/12/22 04:16:09;;;;;;;;;;;14.20;99.90;;;;;;5040985;28;19917;-75
2022/12/22 04:18:35;;;;;;;;;;;14.20;99.90;;;;;;5046684;28;19912;-74
2022/12/22 04:21:00;;;;;;;;;;;14.00;99.90;;;;;;5044260;28;19912;-73
2022/12/22 04:23:26;;;;;;;;;;;14.00;99.90;;;;;;5046339;28;19947;-74
2022/12/22 04:25:51;;;;;;;;;;;14.20;99.90;;;;;;5044049;28;20406;-74
2022/12/22 04:28:17;;;;;;;;;;;14.30;99.90;;;;;;5036920;28;19952;-73
2022/12/22 04:30:42;;;;;;;;;;;14.70;99.90;;;;;;5039474;28;19909;-73
2022/12/22 04:33:07;;;;;;;;;;;14.60;99.90;;;;;;5038483;28;19921;-74
2022/12/22 04:35:33;;;;;;;;;;;14.60;99.90;;;;;;5045821;28;19913;-73
2022/12/22 04:37:58;;;;;;;;;;;14.80;99.90;;;;;;5038562;28;19913;-73
2022/12/22 04:40:24;;;;;;;;;;;14.60;99.90;;;;;;5049800;28;20366;-74
2022/12/22 04:42:49;;;;;;;;;;;14.80;99.90;;;;;;5049093;28;19917;-72
2022/12/22 04:45:15;;;;;;;;;;;14.90;99.90;;;;;;5041194;28;20012;-74
2022/12/22 04:47:40;;;;;;;;;;;14.70;99.90;;;;;;5038267;28;19913;-73
2022/12/22 04:50:06;;;;;;;;;;;14.50;99.90;;;;;;5041246;28;19948;-74
2022/12/22 04:52:31;;;;;;;;;;;14.30;99.90;;;;;;5036568;28;19936;-75
2022/12/22 04:54:57;;;;;;;;;;;14.10;99.90;;;;;;5038418;28;19923;-75
2022/12/22 04:57:22;;;;;;;;;;;14.00;99.90;;;;;;5052951;28;20394;-73
2022/12/22 04:59:48;;;;;;;;;;;13.90;99.90;;;;;;5045313;28;19917;-73
2022/12/22 05:02:13;;;;;;;;;;;14.20;99.90;;;;;;5051073;28;20129;-74
2022/12/22 05:04:39;;;;;;;;;;;14.30;99.90;;;;;;5058388;28;19956;-73
2022/12/22 05:07:06;;;;;;;;;;;14.30;99.90;;;;;;5060815;28;19917;-73
2022/12/22 05:09:32;;;;;;;;;;;14.60;99.90;;;;;;5064384;28;19901;-75
2022/12/22 05:11:57;;;;;;;;;;;14.60;99.90;;;;;;5069528;28;19932;-73
2022/12/22 05:14:23;;;;;;;;;;;14.70;99.90;;;;;;5067035;28;19909;-74
2022/12/22 05:16:48;;;;;;;;;;;15.10;99.90;;;;;;5065739;28;19921;-74
2022/12/22 05:19:14;;;;;;;;;;;15.30;99.90;;;;;;5060436;28;19976;-74
2022/12/22 05:21:39;;;;;;;;;;;15.50;99.90;;;;;;5063680;28;19913;-75
2022/12/22 05:24:05;;;;;;;;;;;15.50;99.90;;;;;;5056222;28;19960;-75
2022/12/22 05:26:30;;;;;;;;;;;15.70;99.90;;;;;;5056463;28;19931;-73
2022/12/22 05:28:56;;;;;;;;;;;15.60;99.90;;;;;;5065286;28;19954;-75
2022/12/22 05:31:22;;;;;;;;;;;15.90;99.90;;;;;;5066143;28;19940;-74
2022/12/22 05:33:48;;;;;;;;;;;16.00;99.90;;;;;;5072009;28;19936;-74
2022/12/22 05:36:13;;;;;;;;;;;16.30;99.90;;;;;;5065188;28;19913;-75
2022/12/22 05:38:39;;;;;;;;;;;16.50;99.90;;;;;;5060220;28;19913;-74
2022/12/22 05:41:05;;;;;;;;;;;16.60;99.90;;;;;;5044447;28;19947;-73
2022/12/22 05:43:31;;;;;;;;;;;16.50;99.90;;;;;;5048387;28;19919;-74
2022/12/22 05:45:59;;;;;;;;;;;16.80;99.90;;;;;;5044947;28;19916;-75
2022/12/22 05:48:25;;;;;;;;;;;16.60;99.90;;;;;;5051656;28;19914;-74
2022/12/22 05:50:50;;;;;;;;;;;16.90;99.90;;;;;;5049610;28;19916;-74
2022/12/22 05:53:16;;;;;;;;;;;16.90;99.90;;;;;;5053252;28;19919;-75
2022/12/22 05:55:41;;;;;;;;;;;16.90;99.90;;;;;;5051546;28;19950;-74
2022/12/22 05:58:07;;;;;;;;;;;17.10;99.90;;;;;;5055926;28;19913;-74
2022/12/22 06:00:32;;;;;;;;;;;17.00;99.90;;;;;;5064106;28;19912;-73
2022/12/22 06:02:58;;;;;;;;;;;17.20;99.90;;;;;;5053292;28;20446;-75
2022/12/22 06:05:23;;;;;;;;;;;17.30;99.90;;;;;;5053465;28;19973;-75
2022/12/22 06:07:49;;;;;;;;;;;17.30;99.90;;;;;;5046511;28;20413;-74
2022/12/22 06:10:15;;;;;;;;;;;17.30;99.90;;;;;;5052335;28;19917;-75
2022/12/22 06:12:41;;;;;;;;;;;17.20;99.90;;;;;;5044930;28;19925;-76
2022/12/22 06:15:07;;;;;;;;;;;17.10;99.90;;;;;;5041443;28;19913;-75
2022/12/22 06:17:33;;;;;;;;;;;17.30;99.90;;;;;;5043889;28;19916;-75
2022/12/22 06:19:58;;;;;;;;;;;17.30;99.90;;;;;;5049473;28;20433;-74
2022/12/22 06:22:24;;;;;;;;;;;17.20;99.90;;;;;;5047864;28;19920;-73
2022/12/22 06:24:49;;;;;;;;;;;17.20;99.90;;;;;;5044379;28;19924;-73
2022/12/22 06:27:15;;;;;;;;;;;17.30;99.90;;;;;;5045048;28;19927;-75
2022/12/22 06:29:40;;;;;;;;;;;17.20;99.90;;;;;;5047400;28;19920;-75
2022/12/22 06:32:06;;;;;;;;;;;17.10;99.90;;;;;;5044260;28;19909;-75
2022/12/22 06:34:31;;;;;;;;;;;17.10;99.90;;;;;;5046087;28;19912;-74
2022/12/22 06:36:57;;;;;;;;;;;17.20;99.90;;;;;;5042028;28;20003;-74
2022/12/22 06:39:23;;;;;;;;;;;17.20;99.90;;;;;;5042573;28;19916;-73
2022/12/22 06:44:32;;;;;;;;;;;17.20;99.90;;;;;;5040987;28;19920;-74
2022/12/22 06:46:58;;;;;;;;;;;17.30;99.90;;;;;;5043951;28;19913;-74
2022/12/22 06:49:23;;;;;;;;;;;17.20;99.90;;;;;;5047513;28;19912;-74
2022/12/22 06:51:49;;;;;;;;;;;17.20;99.90;;;;;;5047350;28;19917;-74
2022/12/22 06:54:14;;;;;;;;;;;17.40;99.90;;;;;;5035390;28;19923;-72
2022/12/22 06:56:40;;;;;;;;;;;17.30;99.90;;;;;;5045393;28;19924;-74
2022/12/22 06:59:05;;;;;;;;;;;17.20;99.90;;;;;;5041536;28;19964;-75
2022/12/22 07:01:31;;;;;;;;;;;17.40;99.90;;;;;;5039758;28;19912;-73
2022/12/22 07:03:56;;;;;;;;;;;17.40;99.90;;;;;;5038956;28;19952;-74
2022/12/22 07:06:22;;;;;;;;;;;17.30;99.90;;;;;;5053318;28;19921;-74
2022/12/22 07:08:47;;;;;;;;;;;17.40;99.90;;;;;;5047621;28;19947;-74
2022/12/22 07:11:14;;;;;;;;;;;17.30;99.90;;;;;;5040447;28;19948;-74
2022/12/22 07:13:39;;;;;;;;;;;17.20;99.90;;;;;;5037896;28;19913;-74
2022/12/22 07:16:06;;;;;;;;;;;17.40;99.90;;;;;;5047981;28;19921;-72
2022/12/22 07:18:35;;;;;;;;;;;17.40;99.90;;;;;;5047467;28;19908;-74
2022/12/22 07:21:02;;;;;;;;;;;17.30;99.90;;;;;;5039582;28;20003;-74
2022/12/22 07:23:28;;;;;;;;;;;17.20;99.90;;;;;;5037473;28;19912;-74
2022/12/22 07:25:53;;;;;;;;;;;17.00;99.90;;;;;;5045058;28;19928;-69
2022/12/22 07:28:19;;;;;;;;;;;17.20;99.90;;;;;;5042673;28;19916;-74
2022/12/22 07:30:44;;;;;;;;;;;17.10;99.90;;;;;;5048275;28;19917;-75
2022/12/22 07:33:10;;;;;;;;;;;17.00;99.90;;;;;;5032950;28;19909;-77
2022/12/22 07:35:35;;;;;;;;;;;17.10;99.90;;;;;;5041409;28;19963;-76
2022/12/22 07:38:01;;;;;;;;;;;17.00;99.90;;;;;;5043097;28;19913;-76
2022/12/22 07:40:26;;;;;;;;;;;17.10;99.90;;;;;;5045865;28;20402;-75
2022/12/22 07:42:58;;;;;;;;;;;17.20;99.90;;;;;;5043142;28;19924;-76
2022/12/22 07:45:24;;;;;;;;;;;17.30;99.90;;;;;;5044805;28;19921;-76
2022/12/22 07:47:49;;;;;;;;;;;17.30;99.90;;;;;;5044235;28;19997;-76
2022/12/22 07:50:31;;;;;;;;;;;17.20;99.90;;;;;;5042719;28;19956;-75
2022/12/22 07:52:58;;;;;;;;;;;17.00;99.90;;;;;;5040332;28;20562;-75
2022/12/22 07:55:24;;;;;;;;;;;17.10;99.90;;;;;;5040192;28;19979;-76
2022/12/22 07:57:50;;;;;;;;;;;16.90;99.90;;;;;;5045070;28;20339;-75
2022/12/22 08:00:16;;;;;;;;;;;17.00;99.90;;;;;;5042263;28;19956;-74
2022/12/22 08:02:42;;;;;;;;;;;17.00;99.90;;;;;;5041243;28;20389;-76
2022/12/22 08:05:08;;;;;;;;;;;17.00;99.90;;;;;;5038673;28;20448;-74
2022/12/22 08:07:34;;;;;;;;;;;17.20;99.90;;;;;;5041943;28;19975;-76
2022/12/22 08:09:59;;;;;;;;;;;17.40;99.90;;;;;;5041389;28;19909;-72
2022/12/22 08:12:25;;;;;;;;;;;17.50;99.90;;;;;;5043430;28;20601;-74
2022/12/22 08:14:50;;;;;;;;;;;17.40;99.90;;;;;;5042834;28;19917;-75
2022/12/22 08:17:16;;;;;;;;;;;17.10;99.90;;;;;;5041538;28;19916;-71
2022/12/22 08:19:41;;;;;;;;;;;17.20;99.90;;;;;;5043379;28;20003;-74
2022/12/22 08:22:07;;;;;;;;;;;17.10;99.90;;;;;;5037204;28;19916;-75
2022/12/22 08:24:32;;;;;;;;;;;16.90;99.90;;;;;;5041807;28;19925;-74
2022/12/22 08:27:04;;;;;;;;;;;17.20;99.90;;;;;;5043407;28;19925;-75
2022/12/22 08:29:35;;;;;;;;;;;16.80;99.90;;;;;;5042851;28;19943;-75
2022/12/22 08:32:01;;;;;;;;;;;16.90;99.90;;;;;;5036577;28;20311;-74
2022/12/22 08:34:26;;;;;;;;;;;16.80;99.90;;;;;;5040517;28;20460;-75
2022/12/22 08:36:54;;;;;;;;;;;16.70;99.90;;;;;;5040505;28;19929;-75
2022/12/22 08:39:20;;;;;;;;;;;16.50;99.90;;;;;;5038876;28;20011;-74
2022/12/22 08:41:48;;;;;;;;;;;16.60;99.90;;;;;;5043925;28;19959;-75
2022/12/22 08:44:14;;;;;;;;;;;16.40;99.90;;;;;;5040375;28;19916;-74
2022/12/22 08:46:40;;;;;;;;;;;16.40;99.90;;;;;;5042331;28;19948;-76
2022/12/22 08:49:06;;;;;;;;;;;16.20;99.90;;;;;;5041370;28;19963;-73
2022/12/22 08:51:31;;;;;;;;;;;16.10;99.90;;;;;;5043592;28;19913;-75
2022/12/22 08:53:57;;;;;;;;;;;16.10;99.90;;;;;;5037017;28;20480;-75
2022/12/22 08:56:22;;;;;;;;;;;16.10;99.90;;;;;;5043540;28;20279;-75
2022/12/22 08:58:48;;;;;;;;;;;16.10;99.90;;;;;;5043094;28;19917;-74
2022/12/22 09:01:20;;;;;;;;;;;16.10;99.90;;;;;;5043283;28;20288;-75
2022/12/22 09:03:49;;;;;;;;;;;15.90;99.90;;;;;;5039472;28;19928;-76
2022/12/22 09:06:15;;;;;;;;;;;16.10;99.90;;;;;;5045643;28;19917;-74
2022/12/22 09:08:41;;;;;;;;;;;15.90;99.90;;;;;;5047106;28;19913;-75
2022/12/22 09:11:07;;;;;;;;;;;15.90;99.90;;;;;;5034836;28;20347;-73
2022/12/22 09:13:32;;;;;;;;;;;15.90;99.90;;;;;;5046254;28;19920;-75
2022/12/22 09:15:57;;;;;;;;;;;15.90;99.90;;;;;;5048170;28;20366;-74
2022/12/22 09:18:23;;;;;;;;;;;15.90;99.90;;;;;;5045542;28;20020;-74
2022/12/22 09:20:53;;;;;;;;;;;15.90;99.90;;;;;;5046280;28;19977;-74
2022/12/22 09:23:19;;;;;;;;;;;15.80;99.90;;;;;;5047266;28;19912;-74
2022/12/22 09:25:44;;;;;;;;;;;16.00;99.90;;;;;;5046025;28;19919;-76
2022/12/22 09:28:10;;;;;;;;;;;15.90;99.90;;;;;;5046371;28;20438;-74
2022/12/22 09:30:36;;;;;;;;;;;15.90;99.90;;;;;;5046524;28;19912;-73
2022/12/22 09:33:01;;;;;;;;;;;15.90;99.90;;;;;;5046157;28;20526;-74
2022/12/22 09:35:27;;;;;;;;;;;15.90;99.90;;;;;;5052202;28;20097;-75
2022/12/22 09:37:52;;;;;;;;;;;16.00;99.90;;;;;;5050432;28;20004;-75
2022/12/22 09:40:20;;;;;;;;;;;16.00;99.90;;;;;;5048192;28;20409;-76
2022/12/22 09:42:46;;;;;;;;;;;16.20;99.90;;;;;;5043869;28;19946;-74
2022/12/22 09:45:18;;;;;;;;;;;16.20;99.90;;;;;;5046573;28;19908;-75
2022/12/22 09:47:52;;;;;;;;;;;16.30;99.90;;;;;;5045315;28;19940;-75
2022/12/22 09:50:22;;;;;;;;;;;16.30;99.90;;;;;;5039027;28;19959;-74
2022/12/22 09:52:56;;;;;;;;;;;16.40;99.90;;;;;;5045539;28;19936;-75
2022/12/22 09:55:24;;;;;;;;;;;16.20;99.90;;;;;;5045222;28;19916;-74
2022/12/22 09:57:50;;;;;;;;;;;16.50;99.90;;;;;;5044153;28;19959;-75
2022/12/22 10:00:17;;;;;;;;;;;16.20;99.90;;;;;;5040636;28;19958;-75
2022/12/22 10:02:58;;;;;;;;;;;16.40;99.90;;;;;;5044824;28;19971;-74
2022/12/22 10:05:29;;;;;;;;;;;16.50;99.90;;;;;;5043160;28;19913;-75
2022/12/22 10:07:58;;;;;;;;;;;16.60;99.90;;;;;;5048348;28;19912;-76
2022/12/22 10:10:27;;;;;;;;;;;16.30;99.90;;;;;;5041704;28;19913;-75
2022/12/22 10:12:59;;;;;;;;;;;16.20;99.90;;;;;;5038760;28;19917;-74
2022/12/22 10:15:25;;;;;;;;;;;16.10;99.90;;;;;;5048113;28;20371;-74
2022/12/22 10:17:52;;;;;;;;;;;16.20;99.90;;;;;;5041616;28;19940;-75
2022/12/22 10:20:20;;;;;;;;;;;16.20;99.90;;;;;;5040016;28;20020;-75
2022/12/22 10:22:47;;;;;;;;;;;16.20;99.90;;;;;;5046239;28;20000;-73
2022/12/22 10:25:33;;;;;;;;;;;16.10;99.90;;;;;;5052017;28;19909;-75
2022/12/22 10:28:11;;;;;;;;;;;16.00;99.90;;;;;;5044545;28;19962;-74
2022/12/22 10:30:37;;;;;;;;;;;16.00;99.90;;;;;;5051032;28;20450;-74
2022/12/22 10:33:13;;;;;;;;;;;15.80;99.90;;;;;;5040020;28;19916;-74
2022/12/22 10:35:51;;;;;;;;;;;15.80;99.90;;;;;;5039073;28;19916;-75
2022/12/22 10:38:19;;;;;;;;;;;16.00;99.90;;;;;;5042552;28;19916;-74
2022/12/22 10:40:46;;;;;;;;;;;15.90;99.90;;;;;;5049348;28;19976;-75
2022/12/22 10:43:17;;;;;;;;;;;15.90;99.90;;;;;;5039082;28;19909;-75
2022/12/22 10:45:46;;;;;;;;;;;15.80;99.90;;;;;;5041418;28;20450;-75
2022/12/22 10:48:11;;;;;;;;;;;15.70;99.90;;;;;;5033842;28;19936;-73
2022/12/22 10:50:43;;;;;;;;;;;15.60;99.90;;;;;;5046163;28;19971;-75
2022/12/22 10:53:08;;;;;;;;;;;15.60;99.90;;;;;;5035508;28;19936;-73
2022/12/22 10:55:34;;;;;;;;;;;15.60;99.90;;;;;;5037810;28;19913;-79
2022/12/22 10:58:09;;;;;;;;;;;15.60;99.90;;;;;;5044053;28;20500;-74
2022/12/22 11:00:36;;;;;;;;;;;15.50;99.90;;;;;;5046142;28;19975;-74
2022/12/22 11:03:02;;;;;;;;;;;15.50;99.90;;;;;;5029950;28;19935;-74
2022/12/22 11:05:28;;;;;;;;;;;15.40;99.90;;;;;;5045736;28;20295;-73
2022/12/22 11:07:54;;;;;;;;;;;15.20;99.90;;;;;;5038476;28;20459;-75
2022/12/22 11:10:32;;;;;;;;;;;15.00;99.90;;;;;;5041801;28;19912;-75
2022/12/22 11:13:03;;;;;;;;;;;14.90;99.90;;;;;;5032747;28;19913;-74
2022/12/22 11:15:40;;;;;;;;;;;14.80;99.90;;;;;;5046826;28;19913;-74
2022/12/22 11:18:18;;;;;;;;;;;14.70;99.90;;;;;;5031306;28;19917;-74
2022/12/22 11:21:04;;;;;;;;;;;14.70;99.90;;;;;;5036009;28;19913;-74
2022/12/22 11:23:30;;;;;;;;;;;14.70;99.90;;;;;;5042905;28;20490;-74
2022/12/22 11:25:55;;;;;;;;;;;14.80;99.90;;;;;;5033911;28;19996;-74
2022/12/22 11:28:35;;;;;;;;;;;14.70;99.90;;;;;;5032573;28;19924;-75
2022/12/22 11:31:06;;;;;;;;;;;14.70;99.90;;;;;;5040993;28;20003;-74
2022/12/22 11:33:34;;;;;;;;;;;14.80;99.90;;;;;;5030279;28;19909;-77
2022/12/22 11:36:03;;;;;;;;;;;15.00;99.90;;;;;;5044089;28;19909;-74
2022/12/22 11:38:47;;;;;;;;;;;14.90;99.90;;;;;;5033166;28;20055;-73
2022/12/22 11:41:20;;;;;;;;;;;14.80;99.90;;;;;;5028157;28;19996;-74
2022/12/22 11:43:55;;;;;;;;;;;14.90;99.90;;;;;;5041650;28;19935;-75
2022/12/22 11:46:39;;;;;;;;;;;14.80;99.90;;;;;;5041352;28;19917;-73
2022/12/22 11:49:31;;;;;;;;;;;14.80;99.90;;;;;;5032425;28;19916;-75
2022/12/22 11:52:08;;;;;;;;;;;14.90;99.90;;;;;;5026769;28;19909;-75
2022/12/22 11:54:39;;;;;;;;;;;15.10;99.90;;;;;;5046605;28;19909;-74
2022/12/22 11:57:21;;;;;;;;;;;15.10;99.90;;;;;;5037041;28;19920;-73
2022/12/22 12:00:01;;;;;;;;;;;15.30;99.90;;;;;;5029691;28;19924;-74
2022/12/22 12:02:35;;;;;;;;;;;15.40;99.90;;;;;;5037894;28;19912;-75
2022/12/22 12:05:01;;;;;;;;;;;15.60;99.90;;;;;;5035294;28;19942;-74
2022/12/22 12:07:38;;;;;;;;;;;15.60;99.90;;;;;;5042041;28;19962;-74
2022/12/22 12:10:03;;;;;;;;;;;15.70;99.90;;;;;;5040395;28;19909;-75
2022/12/22 12:12:32;;;;;;;;;;;15.80;99.90;;;;;;5036550;28;19920;-73
2022/12/22 12:15:15;;;;;;;;;;;15.80;99.90;;;;;;5044340;28;19913;-75
2022/12/22 12:17:59;;;;;;;;;;;16.00;99.90;;;;;;5037670;28;20012;-73
2022/12/22 12:20:36;;;;;;;;;;;16.00;99.90;;;;;;5028070;28;19921;-74
2022/12/22 12:23:08;;;;;;;;;;;16.10;99.90;;;;;;5041537;28;20275;-73
2022/12/22 12:25:39;;;;;;;;;;;16.20;99.90;;;;;;5035950;28;19909;-74
2022/12/22 12:28:17;;;;;;;;;;;16.30;99.90;;;;;;5031487;28;20004;-74
2022/12/22 12:30:51;;;;;;;;;;;16.30;99.90;;;;;;5030248;28;19963;-75
2022/12/22 12:33:20;;;;;;;;;;;16.40;99.90;;;;;;5036087;28;19915;-74
2022/12/22 12:35:49;;;;;;;;;;;16.30;99.90;;;;;;5034614;28;20613;-75
2022/12/22 12:38:20;;;;;;;;;;;16.40;99.90;;;;;;5032959;28;19909;-75
2022/12/22 12:40:46;;;;;;;;;;;16.40;99.90;;;;;;5034741;28;19966;-74
2022/12/22 12:43:12;;;;;;;;;;;16.40;99.90;;;;;;5039673;28;19908;-75
2022/12/22 12:45:40;;;;;;;;;;;16.30;99.90;;;;;;5046042;28;19915;-73
2022/12/22 12:48:20;;;;;;;;;;;16.40;99.90;;;;;;5032765;28;19921;-76
2022/12/22 12:50:46;;;;;;;;;;;16.50;99.90;;;;;;5045907;28;19912;-74
2022/12/22 12:53:12;;;;;;;;;;;16.40;99.90;;;;;;5043966;28;19931;-74
2022/12/22 12:55:37;;;;;;;;;;;16.40;99.90;;;;;;5044211;28;19913;-74
2022/12/22 12:58:04;;;;;;;;;;;16.50;99.90;;;;;;5036692;28;19917;-76
2022/12/22 13:00:32;;;;;;;;;;;16.40;99.90;;;;;;5036526;28;19919;-75
2022/12/22 13:02:58;;;;;;;;;;;16.40;99.90;;;;;;5036947;28;20549;-73
2022/12/22 13:05:59;;;;;;;;;;;16.40;99.90;;;;;;5039120;28;20007;-75
2022/12/22 13:08:25;;;;;;;;;;;16.50;99.90;;;;;;4998121;28;19913;-75
2022/12/22 13:10:53;;;;;;;;;;;16.50;99.90;;;;;;5035762;28;20387;-74
2022/12/22 13:13:22;;;;;;;;;;;16.40;99.90;;;;;;5043637;28;20905;-75
2022/12/22 13:16:02;;;;;;;;;;;16.40;99.90;;;;;;5040106;28;19915;-74
2022/12/22 13:18:28;;;;;;;;;;;16.40;99.90;;;;;;5036859;28;19913;-75
2022/12/22 13:20:54;;;;;;;;;;;16.30;99.90;;;;;;5034394;28;19920;-73
2022/12/22 13:23:20;;;;;;;;;;;16.20;99.90;;;;;;5035949;28;19916;-75
2022/12/22 13:26:01;;;;;;;;;;;16.30;99.90;;;;;;5039197;28;19912;-73
2022/12/22 13:28:27;;;;;;;;;;;16.40;99.90;;;;;;5034880;28;19916;-74
2022/12/22 13:31:01;;;;;;;;;;;16.50;99.90;;;;;;5040720;28;20359;-73
2022/12/22 13:33:28;;;;;;;;;;;16.50;99.90;;;;;;5046047;28;19995;-74
2022/12/22 13:35:55;;;;;;;;;;;16.50;99.90;;;;;;5054207;28;19909;-75
2022/12/22 13:38:31;;;;;;;;;;;16.60;99.90;;;;;;5040439;28;19908;-73
2022/12/22 13:40:58;;;;;;;;;;;16.60;99.90;;;;;;5040536;28;21588;-75
2022/12/22 13:43:25;;;;;;;;;;;16.50;99.90;;;;;;5039408;28;19971;-74
2022/12/22 13:45:55;;;;;;;;;;;16.30;99.90;;;;;;5038540;28;20419;-73
2022/12/22 13:48:27;;;;;;;;;;;16.30;99.90;;;;;;5044985;28;19913;-74
2022/12/22 13:50:55;;;;;;;;;;;16.40;99.90;;;;;;5045270;28;20387;-77
2022/12/22 13:53:34;;;;;;;;;;;16.60;99.90;;;;;;5040903;28;19913;-74
2022/12/22 13:56:00;;;;;;;;;;;16.50;99.90;;;;;;5049254;28;19915;-73
2022/12/22 13:58:27;;;;;;;;;;;16.30;99.90;;;;;;5048408;28;19917;-74
2022/12/22 14:01:00;;;;;;;;;;;16.30;99.90;;;;;;5047591;28;19920;-75
2022/12/22 14:03:25;;;;;;;;;;;16.10;99.90;;;;;;5042850;28;19920;-75
2022/12/22 14:05:50;;;;;;;;;;;15.90;99.90;;;;;;5047837;28;19999;-74
2022/12/22 14:08:20;;;;;;;;;;;15.80;99.90;;;;;;5044683;28;19924;-74
2022/12/22 14:10:47;;;;;;;;;;;15.70;99.90;;;;;;5039583;28;19913;-73
2022/12/22 14:13:17;;;;;;;;;;;15.70;99.90;;;;;;5041302;28;19924;-76
2022/12/22 14:15:43;;;;;;;;;;;15.50;99.90;;;;;;5043328;28;19908;-75
2022/12/22 14:18:13;;;;;;;;;;;15.50;99.90;;;;;;5034744;28;19917;-74
2022/12/22 14:20:39;;;;;;;;;;;15.50;99.90;;;;;;5032254;28;20551;-75
2022/12/22 14:23:19;;;;;;;;;;;15.50;99.90;;;;;;5036050;28;19976;-73
2022/12/22 14:25:45;;;;;;;;;;;15.30;99.90;;;;;;5043231;28;19915;-74
2022/12/22 14:28:13;;;;;;;;;;;15.30;99.90;;;;;;5039863;28;19917;-75
2022/12/22 14:30:43;;;;;;;;;;;15.20;99.90;;;;;;5034772;28;19960;-74
2022/12/22 14:33:14;;;;;;;;;;;15.10;99.90;;;;;;5046725;28;19908;-74
2022/12/22 14:35:40;;;;;;;;;;;15.20;99.90;;;;;;5047570;28;19909;-74
2022/12/22 14:38:05;;;;;;;;;;;15.20;99.90;;;;;;5042690;28;19924;-74
2022/12/22 14:40:32;;;;;;;;;;;15.20;99.90;;;;;;5041582;28;19955;-75
2022/12/22 14:42:58;;;;;;;;;;;15.20;99.90;;;;;;5043158;28;20079;-75
2022/12/22 14:45:24;;;;;;;;;;;14.90;99.90;;;;;;5044256;28;19921;-75
2022/12/22 14:47:50;;;;;;;;;;;15.00;99.90;;;;;;5045107;28;20329;-75
2022/12/22 14:50:19;;;;;;;;;;;14.80;99.90;;;;;;5047929;28;19940;-74
2022/12/22 14:52:54;;;;;;;;;;;15.30;99.90;;;;;;5039122;28;19915;-73
2022/12/22 14:55:29;;;;;;;;;;;15.80;99.90;;;;;;5037645;28;19919;-76
2022/12/22 14:58:08;;;;;;;;;;;16.40;99.90;;;;;;5047570;28;19916;-76
2022/12/22 15:00:38;;;;;;;;;;;16.60;99.90;;;;;;5047041;28;19916;-75
2022/12/22 15:03:39;;;;;;;;;;;16.60;99.90;;;;;;5040377;28;20457;-75
2022/12/22 15:06:20;;;;;;;;;;;17.00;99.90;;;;;;4989021;28;20356;-76
2022/12/22 15:08:45;;;;;;;;;;;16.80;99.90;;;;;;5033335;28;19955;-76
2022/12/22 15:11:13;;;;;;;;;;;16.90;99.90;;;;;;5036798;28;19913;-75
2022/12/22 15:13:39;;;;;;;;;;;17.00;99.90;;;;;;5044475;28;19909;-75
2022/12/22 15:16:04;;;;;;;;;;;17.10;99.90;;;;;;5036176;28;19916;-75
2022/12/22 15:18:31;;;;;;;;;;;17.10;99.90;;;;;;5046136;28;19916;-76
2022/12/22 15:20:56;;;;;;;;;;;17.10;99.90;;;;;;5034442;28;19940;-77
2022/12/22 15:23:22;;;;;;;;;;;17.00;99.90;;;;;;5045050;28;20361;-76
2022/12/22 15:25:47;;;;;;;;;;;17.00;99.90;;;;;;5037979;28;19916;-75
2022/12/22 15:28:13;;;;;;;;;;;17.00;99.90;;;;;;5045522;28;19913;-75
2022/12/22 15:30:39;;;;;;;;;;;17.00;99.90;;;;;;5046913;28;19909;-76
2022/12/22 15:33:12;;;;;;;;;;;17.10;99.90;;;;;;5034182;28;19913;-74
2022/12/22 15:35:38;;;;;;;;;;;17.30;99.90;;;;;;5035490;28;19909;-74
2022/12/22 15:38:14;;;;;;;;;;;17.30;99.90;;;;;;5046224;28;20547;-75
2022/12/22 15:40:40;;;;;;;;;;;17.20;99.90;;;;;;5048463;28;20454;-74
2022/12/22 15:43:05;;;;;;;;;;;17.10;99.90;;;;;;5044170;28;19913;-72
2022/12/22 15:45:31;;;;;;;;;;;17.20;99.90;;;;;;5039719;28;19940;-71
2022/12/22 15:47:57;;;;;;;;;;;17.20;99.90;;;;;;5044126;28;19913;-73
2022/12/22 15:50:24;;;;;;;;;;;17.40;99.90;;;;;;5037496;28;19909;-72
2022/12/22 15:52:52;;;;;;;;;;;17.10;99.90;;;;;;5038788;28;20456;-73
2022/12/22 15:55:18;;;;;;;;;;;17.20;99.90;;;;;;5037942;28;20682;-75
2022/12/22 15:57:48;;;;;;;;;;;17.10;99.90;;;;;;5046992;28;22392;-73
2022/12/22 16:00:14;;;;;;;;;;;17.20;99.90;;;;;;5047130;28;19921;-74
2022/12/22 16:02:39;;;;;;;;;;;17.10;99.90;;;;;;5033862;28;20147;-74
2022/12/22 16:05:05;;;;;;;;;;;17.50;99.90;;;;;;5034942;28;20023;-73
2022/12/22 16:07:30;;;;;;;;;;;17.40;99.90;;;;;;5037746;28;19909;-74
2022/12/22 16:09:56;;;;;;;;;;;17.40;99.90;;;;;;5037477;28;19913;-74
2022/12/22 16:12:22;;;;;;;;;;;17.60;99.90;;;;;;5038702;28;19920;-75
2022/12/22 16:14:50;;;;;;;;;;;17.30;99.90;;;;;;5041292;28;20015;-74
2022/12/22 16:17:20;;;;;;;;;;;17.40;99.90;;;;;;5037552;28;19913;-71
2022/12/22 16:19:45;;;;;;;;;;;17.40;99.90;;;;;;5046582;28;19913;-73
2022/12/22 16:22:12;;;;;;;;;;;17.60;99.90;;;;;;5037227;28;19962;-74
2022/12/22 16:24:39;;;;;;;;;;;17.50;99.90;;;;;;5036358;28;19909;-73
2022/12/22 16:27:05;;;;;;;;;;;17.50;99.90;;;;;;5039485;28;19999;-74
2022/12/22 16:29:30;;;;;;;;;;;17.40;99.90;;;;;;5042775;28;19956;-71
2022/12/22 16:32:14;;;;;;;;;;;17.60;99.90;;;;;;5047174;28;20373;-74
2022/12/22 16:34:39;;;;;;;;;;;17.70;99.90;;;;;;5044411;28;19909;-72
2022/12/22 16:37:05;;;;;;;;;;;17.70;99.90;;;;;;5043045;28;19920;-74
2022/12/22 16:39:30;;;;;;;;;;;17.80;99.90;;;;;;5048716;28;19908;-73
2022/12/22 16:41:57;;;;;;;;;;;18.00;99.90;;;;;;5041865;28;20695;-73
2022/12/22 16:44:23;;;;;;;;;;;17.90;99.90;;;;;;5034571;28;19909;-73
2022/12/22 16:46:49;;;;;;;;;;;18.10;99.90;;;;;;5047189;28;19909;-73
2022/12/22 16:49:16;;;;;;;;;;;18.20;99.90;;;;;;5039411;28;19963;-73
2022/12/22 16:51:45;;;;;;;;;;;18.10;99.90;;;;;;5033276;28;20462;-73
2022/12/22 16:54:13;;;;;;;;;;;18.20;99.90;;;;;;5035206;28;19909;-72
2022/12/22 16:56:40;;;;;;;;;;;18.30;99.90;;;;;;5045732;28;19913;-72
2022/12/22 16:59:06;;;;;;;;;;;18.40;99.90;;;;;;5035584;28;19913;-73
2022/12/22 17:01:34;;;;;;;;;;;18.30;99.90;;;;;;5036828;28;19916;-72
2022/12/22 17:04:03;;;;;;;;;;;18.40;99.90;;;;;;5037659;28;20391;-68
2022/12/22 17:06:28;;;;;;;;;;;18.50;99.90;;;;;;5039631;28;19913;-71
2022/12/22 17:08:54;;;;;;;;;;;18.70;99.90;;;;;;5043414;28;19919;-73
2022/12/22 17:11:21;;;;;;;;;;;18.50;99.90;;;;;;5045366;28;20020;-71
2022/12/22 17:13:48;;;;;;;;;;;18.70;99.90;;;;;;5043371;28;19913;-71
2022/12/22 17:16:17;;;;;;;;;;;18.60;99.90;;;;;;5037217;28;20020;-72
2022/12/22 17:18:43;;;;;;;;;;;18.70;99.90;;;;;;5037282;28;19924;-71
2022/12/22 17:21:10;;;;;;;;;;;18.80;99.90;;;;;;5040559;28;19917;-72
2022/12/22 17:23:38;;;;;;;;;;;18.80;99.90;;;;;;5040868;28;20004;-73
2022/12/22 17:26:08;;;;;;;;;;;19.00;99.90;;;;;;5048705;28;19921;-73
2022/12/22 17:28:34;;;;;;;;;;;18.90;99.90;;;;;;5046120;28;19919;-69
2022/12/22 17:31:00;;;;;;;;;;;19.10;99.90;;;;;;5047681;28;19916;-70
2022/12/22 17:33:25;;;;;;;;;;;18.80;99.90;;;;;;5042707;28;19912;-74
2022/12/22 17:35:52;;;;;;;;;;;19.20;99.90;;;;;;5040535;28;20062;-73
2022/12/22 17:38:18;;;;;;;;;;;19.20;99.90;;;;;;5049849;28;19928;-72
2022/12/22 17:40:46;;;;;;;;;;;19.10;99.90;;;;;;5049131;28;19913;-73
2022/12/22 17:43:15;;;;;;;;;;;19.20;99.90;;;;;;5046993;28;20416;-75
2022/12/22 17:45:41;;;;;;;;;;;19.30;99.90;;;;;;5049445;28;19909;-74
2022/12/22 17:48:06;;;;;;;;;;;19.50;99.90;;;;;;5051125;28;19927;-73
2022/12/22 17:50:32;;;;;;;;;;;19.70;99.90;;;;;;5044471;28;19909;-74
2022/12/22 17:52:58;;;;;;;;;;;19.70;99.90;;;;;;5043911;28;19952;-73
2022/12/22 17:55:25;;;;;;;;;;;19.80;99.90;;;;;;5046459;28;19920;-72
2022/12/22 17:57:51;;;;;;;;;;;19.70;99.90;;;;;;5039995;28;19917;-72